• Join FlightAware (Why Join?)
  • Login
  • US Flag 
09:06AM EDT


 

Airport Tracker/Info


-or-


 

Live Flight TrackerFlight Track Log ✈ SWA655 ✈ 07-Apr-2013 ✈ KLAS - KMCO

Flight Track Log - Related Links

Times and Time Zones

All times are in EDT time to prevent confusion due to time zone crossing. See the SWA655 flight status page for this flight to view local times or setup timezone preferences in your user account.

Time Position Orientation Groundspeed Altitude Reporting Facility
EDT Latitude Longitude Course Direction KTS MPH feet Rate Location/Type
08:56PM 36.0761 -115.1683 267° West 153 176 3,300  Level Los Angeles Center
08:57PM 36.0725 -115.2411 267° West 212 244 5,200 1,740 Climbing Los Angeles Center
08:58PM 36.0344 -115.2694 211° Southwest 237 273 6,300 1,680 Climbing Los Angeles Center
08:58PM 36.0122 -115.2822 205° Southwest 267 307 6,900 720 Climbing Los Angeles Center
08:59PM 35.9619 -115.2972 194° South 265 305 7,100 480 Climbing Los Angeles Center
08:59PM 35.9386 -115.2906 167° South 283 326 7,400 2,280 Climbing Los Angeles Center
09:00PM 35.9067 -115.2339 125° Southeast 281 323 9,500 2,400 Climbing Los Angeles Center
09:01PM 35.9106 -115.1247 87° East 319 367 11,700 2,580 Climbing Los Angeles Center
09:02PM 35.9133 -114.9989 88° East 355 409 14,800 2,820 Climbing Los Angeles Center
09:03PM 35.9142 -114.8678 90° East 376 433 17,600 2,640 Climbing Los Angeles Center
09:04PM 35.9158 -114.7014 89° East 398 458 20,300 2,460 Climbing Los Angeles Center
09:05PM 35.9175 -114.5525 89° East 423 487 22,700 2,220 Climbing Los Angeles Center
09:06PM 35.9186 -114.3994 89° East 440 506 24,900 1,980 Climbing Los Angeles Center
09:07PM 35.9197 -114.2447 89° East 449 517 26,800 1,740 Climbing Los Angeles Center
09:08PM 35.9211 -114.0850 89° East 461 531 28,500 1,500 Climbing Los Angeles Center
09:09PM 35.9214 -113.9200 90° East 474 545 29,900 1,500 Climbing Los Angeles Center
09:10PM 35.8933 -113.7175 100° East 499 574 31,700 1,680 Climbing Los Angeles Center
09:11PM 35.8706 -113.5650 100° East 501 577 33,400 1,440 Climbing Los Angeles Center
09:12PM 35.8447 -113.4000 101° East 496 571 34,700 1,140 Climbing Los Angeles Center
09:13PM 35.8175 -113.2339 101° East 495 570 35,800 1,020 Climbing Los Angeles Center
09:14PM 35.7839 -113.0308 101° East 501 577 36,900 540 Climbing Los Angeles Center
09:15PM 35.7567 -112.8592 101° East 506 582 37,000  Climbing Los Angeles Center
09:16PM 35.7275 -112.6883 102° East 508 585 37,000  Level Los Angeles Center
09:17PM 35.7006 -112.5189 101° East 505 581 37,000  Level Los Angeles Center
09:18PM 35.6931 -112.3817 94° East 505 581 37,000  Level Los Angeles Center
09:19PM 35.6847 -112.1781 93° East 499 574 37,000  Level Los Angeles Center
09:20PM 35.6769 -112.0069 93° East 502 578 37,000  Level Los Angeles Center
09:21PM 35.6675 -111.8039 93° East 498 573 37,000  Level Los Angeles Center
09:22PM 35.6589 -111.6342 94° East 501 577 37,000  Level Los Angeles Center
09:23PM 35.6497 -111.4647 94° East 508 585 37,000  Level Los Angeles Center
09:24PM 35.6411 -111.2908 93° East 511 588 37,000  Level Los Angeles Center
09:26PM 35.6275 -111.0589 94° East 514 592 37,000  Level Albuquerque Center
09:27PM 35.6189 -110.8911 94° East 515 593 37,000  Level Albuquerque Center
09:28PM 35.6067 -110.6942 94° East 517 595 37,000  Level Albuquerque Center
09:29PM 35.5972 -110.5258 94° East 517 595 37,000  Level Albuquerque Center
09:30PM 35.5858 -110.3597 95° East 513 590 37,000  Level Albuquerque Center
09:31PM 35.5764 -110.1642 93° East 514 592 37,000  Level Albuquerque Center
09:32PM 35.5653 -109.9956 95° East 516 594 37,000  Level Albuquerque Center
09:33PM 35.5539 -109.7981 94° East 519 597 37,000  Level Albuquerque Center
09:34PM 35.5425 -109.6311 95° East 517 595 37,000  Level Albuquerque Center
09:35PM 35.5319 -109.4631 94° East 517 595 37,000  Level Albuquerque Center
09:36PM 35.5189 -109.2672 95° East 518 596 37,000  Level Albuquerque Center
09:37PM 35.5067 -109.1008 95° East 515 593 37,000  Level Albuquerque Center
09:38PM 35.4936 -108.9069 95° East 514 592 37,000  Level Albuquerque Center
09:39PM 35.4814 -108.7406 95° East 514 592 37,000  Level Albuquerque Center
09:40PM 35.4669 -108.5461 95° East 515 593 37,000  Level Albuquerque Center
09:41PM 35.4556 -108.3797 95° East 515 593 37,000  Level Albuquerque Center
09:42PM 35.4397 -108.1861 96° East 513 590 37,000  Level Albuquerque Center
09:43PM 35.4278 -108.0183 95° East 515 593 37,000  Level Albuquerque Center
09:44PM 35.4131 -107.8547 96° East 509 586 37,000  Level Albuquerque Center
09:45PM 35.3969 -107.6625 96° East 508 585 37,000  Level Albuquerque Center
09:46PM 35.3831 -107.4969 96° East 510 587 37,000  Level Albuquerque Center
09:47PM 35.3669 -107.3044 96° East 510 587 37,000  Level Albuquerque Center
09:48PM 35.3511 -107.1389 97° East 512 589 37,000  Level Albuquerque Center
09:49PM 35.3358 -106.9747 96° East 509 586 37,000  Level Albuquerque Center
09:50PM 35.3211 -106.7828 95° East 506 582 37,000  Level Albuquerque Center
09:51PM 35.3081 -106.6172 95° East 510 587 37,000  Level Albuquerque Center
09:52PM 35.2883 -106.4369 98° East 514 592 37,000  Level Albuquerque Center
09:53PM 35.2728 -106.2642 96° East 511 588 37,000  Level Albuquerque Center
09:54PM 35.2531 -106.0792 97° East 508 585 37,000  Level Albuquerque Center
09:55PM 35.2361 -105.9042 97° East 513 590 37,000  Level Albuquerque Center
09:56PM 35.2203 -105.7283 96° East 516 594 37,000  Level Albuquerque Center
09:57PM 35.2017 -105.5542 97° East 514 592 37,000  Level Albuquerque Center
09:58PM 35.1858 -105.3806 96° East 512 589 37,000  Level Albuquerque Center
09:59PM 35.1667 -105.2078 98° East 510 587 37,000  Level Albuquerque Center
10:00PM 35.1489 -105.0353 97° East 509 586 37,000  Level Albuquerque Center
10:01PM 35.1300 -104.8656 98° East 504 580 37,000  Level Albuquerque Center
10:02PM 35.1125 -104.6950 97° East 503 579 37,000  Level Albuquerque Center
10:03PM 35.0942 -104.5194 97° East 505 581 37,000  Level Albuquerque Center
10:04PM 35.0725 -104.3264 98° East 505 581 37,000 240 Level Albuquerque Center
10:05PM 35.0525 -104.1542 98° East 515 593 37,500 900 Climbing Albuquerque Center
10:07PM 35.0333 -103.9803 98° East 520 598 38,900 720 Climbing Albuquerque Center
10:08PM 35.0144 -103.8092 98° East 513 590 39,000  Climbing Albuquerque Center
10:09PM 34.9939 -103.6369 98° East 511 588 39,000  Level Albuquerque Center
10:10PM 34.9733 -103.4653 98° East 509 586 39,000  Level Albuquerque Center
10:11PM 34.9542 -103.2950 98° East 506 582 39,000  Level Albuquerque Center
10:12PM 34.9342 -103.1247 98° East 505 581 39,000  Level Albuquerque Center
10:13PM 34.9136 -102.9558 98° East 502 578 39,000  Level Albuquerque Center
10:14PM 34.8883 -102.7592 99° East 501 577 39,000  Level Albuquerque Center
10:15PM 34.8689 -102.6200 100° East 501 577 39,000  Level Albuquerque Center
10:16PM 34.8447 -102.4200 98° East 501 577 39,000  Level Albuquerque Center
10:17PM 34.8236 -102.2531 99° East 502 578 39,000  Level Albuquerque Center
10:18PM 34.8019 -102.0861 99° East 503 579 39,000  Level Albuquerque Center
10:19PM 34.7806 -101.9194 99° East 504 580 39,000  Level Albuquerque Center
10:20PM 34.7578 -101.7536 99° East 504 580 39,000  Level Albuquerque Center
10:21PM 34.7353 -101.5872 99° East 504 580 39,000  Level Albuquerque Center
10:22PM 34.7119 -101.4181 99° East 508 585 39,000  Level Albuquerque Center
10:23PM 34.6853 -101.2147 99° East 511 588 39,000  Level Albuquerque Center
10:24PM 34.6622 -101.0458 99° East 511 588 39,000  Level Albuquerque Center
10:25PM 34.6394 -100.8769 99° East 510 587 39,000  Level Albuquerque Center
10:26PM 34.6156 -100.7092 100° East 509 586 39,000  Level Albuquerque Center
10:27PM 34.5908 -100.5417 100° East 506 582 39,000  Level Albuquerque Center
10:28PM 34.5664 -100.3758 100° East 503 579 39,000  Level Albuquerque Center
10:29PM 34.5425 -100.2089 100° East 504 580 39,000  Level Albuquerque Center
10:30PM 34.5189 -100.0472 100° East 506 582 39,000  Level Fort Worth Center
10:31PM 34.4953 -99.8828 100° East 506 582 39,000  Level Fort Worth Center
10:32PM 34.4689 -99.7308 102° East 506 582 39,000  Level Fort Worth Center
10:33PM 34.4469 -99.5617 99° East 506 582 39,000  Level Fort Worth Center
10:34PM 34.4206 -99.3972 101° East 506 582 39,000  Level Fort Worth Center
10:35PM 34.3958 -99.2281 100° East 501 577 39,000  Level Fort Worth Center
10:36PM 34.3689 -99.0717 102° East 496 571 39,000  Level Fort Worth Center
10:37PM 34.3417 -98.9025 101° East 490 564 39,000  Level Fort Worth Center
10:38PM 34.3164 -98.7411 101° East 490 564 39,000  Level Fort Worth Center
10:39PM 34.2869 -98.5722 102° East 490 564 39,000  Level Fort Worth Center
10:40PM 34.2633 -98.4111 100° East 490 564 39,000  Level Fort Worth Center
10:41PM 34.2353 -98.2475 102° East 490 564 39,000  Level Fort Worth Center
10:42PM 34.2092 -98.0867 101° East 490 564 39,000  Level Fort Worth Center
10:43PM 34.1806 -97.9206 102° East 490 564 39,000  Level Fort Worth Center
10:45PM 34.1253 -97.5892 101° East 495 570 39,000  Level Fort Worth Center
10:46PM 34.0919 -97.4086 103° East 495 570 39,000  Level Fort Worth Center
10:47PM 34.0731 -97.2506 98° East 512 589 39,000  Level Fort Worth Center
10:48PM 34.0436 -97.0878 102° East 507 583 39,000  Level Fort Worth Center
10:49PM 34.0139 -96.9197 102° East 507 583 39,000  Level Fort Worth Center
10:50PM 33.9839 -96.7547 102° East 507 583 39,000  Level Fort Worth Center
10:51PM 33.9536 -96.5722 101° East 507 583 39,000  Level Fort Worth Center
10:52PM 33.9253 -96.4072 102° East 507 583 39,000  Level Fort Worth Center
10:53PM 33.8925 -96.2350 103° East 507 583 39,000  Level Fort Worth Center
10:54PM 33.8614 -96.0703 103° East 507 583 39,000  Level Fort Worth Center
10:55PM 33.8325 -95.9056 102° East 507 583 39,000  Level Fort Worth Center
10:56PM 33.8033 -95.7411 102° East 507 583 39,000  Level Fort Worth Center
10:57PM 33.7719 -95.5919 104° East 507 583 39,000  Level Fort Worth Center
10:58PM 33.7403 -95.4328 103° East 501 577 39,000  Level Fort Worth Center
10:59PM 33.7086 -95.2711 103° East 501 577 39,000  Level Fort Worth Center
11:00PM 33.6764 -95.1047 103° East 501 577 39,000  Level Fort Worth Center
11:01PM 33.6481 -94.9383 102° East 506 582 39,000  Level Fort Worth Center
11:02PM 33.6053 -94.7747 107° East 506 582 39,000  Level Fort Worth Center
11:03PM 33.5536 -94.6169 111° Southeast 506 582 39,000  Level Fort Worth Center
11:04PM 33.5022 -94.4592 111° Southeast 506 582 39,000  Level Fort Worth Center
11:05PM 33.4503 -94.2989 111° Southeast 506 582 39,000  Level Fort Worth Center
11:06PM 33.4006 -94.1464 111° Southeast 506 582 39,000  Level Fort Worth Center
11:07PM 33.3456 -93.9694 110° East 506 582 39,000  Level Fort Worth Center
11:08PM 33.2914 -93.8175 113° Southeast 506 582 39,000  Level Fort Worth Center
11:09PM 33.2508 -93.6503 106° East 515 593 39,000  Level Fort Worth Center
11:10PM 33.2208 -93.4878 102° East 509 586 39,000  Level Fort Worth Center
11:11PM 33.1928 -93.3253 102° East 509 586 39,000  Level Fort Worth Center
11:12PM 33.1603 -93.1653 104° East 509 586 39,000  Level Fort Worth Center
11:13PM 33.1297 -93.0031 103° East 504 580 39,000  Level Fort Worth Center
11:14PM 33.0967 -92.8411 104° East 504 580 39,000  Level Fort Worth Center
11:15PM 33.0658 -92.6792 103° East 504 580 39,000  Level Fort Worth Center
11:16PM 33.0344 -92.5172 103° East 504 580 39,000  Level Fort Worth Center
11:18PM 32.9653 -92.1969 104° East 501 577 39,000  Level Memphis Center
11:19PM 32.9342 -92.0403 103° East 496 571 39,000  Level Memphis Center
11:20PM 32.8964 -91.8814 106° East 490 564 39,000  Level Memphis Center
11:21PM 32.8628 -91.7200 104° East 495 570 39,000  Level Memphis Center
11:22PM 32.8331 -91.5639 103° East 490 564 39,000  Level Memphis Center
11:23PM 32.7992 -91.4053 104° East 490 564 39,000  Level Memphis Center
11:24PM 32.7669 -91.2492 104° East 490 564 39,000  Level Memphis Center
11:25PM 32.7325 -91.0958 105° East 490 564 39,000  Level Memphis Center
11:26PM 32.7019 -90.9497 104° East 490 564 39,000  Level Memphis Center
11:27PM 32.6669 -90.7967 105° East 490 564 39,000  Level Memphis Center
11:28PM 32.6342 -90.6361 104° East 490 564 39,000  Level Memphis Center
11:29PM 32.5989 -90.4806 105° East 490 564 39,000  Level Memphis Center
11:30PM 32.5656 -90.3203 104° East 490 564 39,000  Level Memphis Center
11:31PM 32.5278 -90.1628 106° East 490 564 39,000  Level Memphis Center
11:32PM 32.4939 -90.0050 104° East 490 564 39,000  Level Memphis Center
11:33PM 32.4600 -89.8478 104° East 490 564 39,000  Level Memphis Center
11:34PM 32.4239 -89.6928 105° East 490 564 39,000  Level Memphis Center
11:35PM 32.3853 -89.5233 105° East 490 564 39,000  Level Memphis Center
11:36PM 32.3506 -89.3689 105° East 485 558 39,000  Level Memphis Center
11:37PM 32.3158 -89.2167 105° East 485 558 39,000  Level Memphis Center
11:38PM 32.2811 -89.0647 105° East 485 558 39,000  Level Memphis Center
11:39PM 32.2458 -88.9131 105° East 480 552 39,000  Level Memphis Center
11:41PM 32.1625 -88.5653 106° East 460 529 39,000  Level Atlanta Center
11:42PM 32.1283 -88.4139 105° East 465 535 39,000  Level Atlanta Center
11:43PM 32.0917 -88.2628 106° East 470 541 39,000  Level Atlanta Center
11:44PM 32.0553 -88.1114 106° East 475 547 39,000  Level Atlanta Center
11:45PM 32.0183 -87.9606 106° East 475 547 39,000  Level Atlanta Center
11:46PM 31.9814 -87.8069 106° East 480 552 39,000  Level Atlanta Center
11:49PM 31.8792 -87.4747 110° East 477 549 39,000  Level Jacksonville Center
11:50PM 31.8128 -87.3419 120° Southeast 477 549 39,000  Level Jacksonville Center
11:51PM 31.7344 -87.1964 122° Southeast 482 555 39,000  Level Jacksonville Center
11:52PM 31.6658 -87.0639 121° Southeast 482 555 39,000  Level Jacksonville Center
11:53PM 31.5969 -86.9292 121° Southeast 482 555 39,000  Level Jacksonville Center
11:54PM 31.5281 -86.7944 121° Southeast 487 560 39,000  Level Jacksonville Center
11:55PM 31.4611 -86.6628 121° Southeast 487 560 39,000  Level Jacksonville Center
11:56PM 31.3919 -86.5308 122° Southeast 487 560 39,000  Level Jacksonville Center
11:57PM 31.3308 -86.4094 120° Southeast 487 560 39,000  Level Jacksonville Center
11:58PM 31.2614 -86.2756 121° Southeast 487 560 39,000  Level Jacksonville Center
11:59PM 31.1917 -86.1419 121° Southeast 487 560 39,000  Level Jacksonville Center
12:00AM 31.1239 -86.0108 121° Southeast 487 560 39,000  Level Jacksonville Center
12:01AM 31.0564 -85.8753 120° Southeast 487 560 39,000  Level Jacksonville Center
12:02AM 30.9861 -85.7422 122° Southeast 487 560 39,000  Level Jacksonville Center
12:03AM 30.9161 -85.6094 122° Southeast 481 554 39,000  Level Jacksonville Center
12:04AM 30.8458 -85.4767 122° Southeast 481 554 39,000  Level Jacksonville Center
12:05AM 30.7753 -85.3442 122° Southeast 486 559 39,000  Level Jacksonville Center
12:06AM 30.7028 -85.2094 122° Southeast 486 559 39,000  Level Jacksonville Center
12:07AM 30.6258 -85.0628 121° Southeast 486 559 39,000  Level Jacksonville Center
12:08AM 30.5531 -84.9286 122° Southeast 486 559 39,000  Level Jacksonville Center
12:09AM 30.4819 -84.7944 122° Southeast 492 566 39,000  Level Jacksonville Center
12:10AM 30.4108 -84.6606 122° Southeast 487 560 39,000  Level Jacksonville Center
12:11AM 30.3333 -84.5267 124° Southeast 487 560 39,000  Level Jacksonville Center
12:12AM 30.2639 -84.3908 121° Southeast 487 560 39,000  Level Jacksonville Center
12:13AM 30.1883 -84.2600 124° Southeast 487 560 39,000  Level Jacksonville Center
12:14AM 30.1267 -84.1414 121° Southeast 481 554 39,000 -300 Level Jacksonville Center
12:15AM 30.0508 -84.0083 123° Southeast 481 554 38,400 -780 Descending Jacksonville Center
12:16AM 29.9789 -83.8733 122° Southeast 487 560 37,500 -960 Descending Jacksonville Center
12:17AM 29.9067 -83.7383 122° Southeast 492 566 36,500 -960 Descending Jacksonville Center
12:18AM 29.8303 -83.6036 123° Southeast 497 572 35,600 -960 Descending Jacksonville Center
12:19AM 29.7536 -83.4692 123° Southeast 497 572 34,600 -1,020 Descending Jacksonville Center
12:20AM 29.6811 -83.3397 123° Southeast 497 572 33,600 -1,020 Descending Jacksonville Center
12:21AM 29.6086 -83.2078 122° Southeast 492 566 32,600 -1,080 Descending Jacksonville Center
12:22AM 29.5378 -83.0811 123° Southeast 486 559 31,500 -1,800 Descending Jacksonville Center
12:23AM 29.4564 -82.9403 124° Southeast 486 559 29,100 -2,280 Descending Jacksonville Center
12:24AM 29.3917 -82.8211 122° Southeast 469 540 27,000 -2,100 Descending Jacksonville Center
12:25AM 29.3247 -82.7019 123° Southeast 457 526 25,000 -2,100 Descending Jacksonville Center
12:26AM 29.2578 -82.5881 124° Southeast 439 505 22,900 -2,100 Descending Jacksonville Center
12:27AM 29.1969 -82.4811 123° Southeast 420 483 20,900 -1,980 Descending Jacksonville Center
12:28AM 29.1361 -82.3767 124° Southeast 410 472 19,000 -1,800 Descending Jacksonville Center
12:29AM 29.0792 -82.2772 123° Southeast 388 447 17,400 -1,800 Descending Jacksonville Center
12:30AM 29.0244 -82.1778 122° Southeast 378 435 15,400 -1,920 Descending Jacksonville Center
12:31AM 28.9717 -82.0833 123° Southeast 367 422 13,600 -1,500 Descending Jacksonville Center
12:32AM 28.9275 -82.0053 123° Southeast 351 404 12,400 -1,140 Descending Jacksonville Center
12:33AM 28.8808 -81.9156 121° Southeast 340 391 11,400 -780 Descending Jacksonville Center
12:34AM 28.8342 -81.8261 121° Southeast 333 383 10,900 -780 Descending Jacksonville Center
12:34AM 28.8167 -81.7833 115° Southeast 314 361 10,400 -1,680 Descending Orlando TRACON
12:35AM 28.7667 -81.7000 124° Southeast 309 356 8,700 -1,620 Descending Orlando TRACON
12:36AM 28.7333 -81.6167 115° Southeast 304 350 7,200 -1,440 Descending Orlando TRACON
12:37AM 28.6833 -81.5500 131° Southeast 280 322 5,900 -1,200 Descending Orlando TRACON
12:38AM 28.6500 -81.4667 114° Southeast 268 308 4,900 -780 Descending Orlando TRACON
12:39AM 28.6167 -81.4167 127° Southeast 233 268 4,400 -660 Descending Orlando TRACON
12:40AM 28.5833 -81.3500 120° Southeast 195 224 3,600 -900 Descending Orlando TRACON
12:41AM 28.5667 -81.3000 111° Southeast 180 207 2,600 -960 Descending Orlando TRACON
12:42AM 28.5167 -81.3000 180° South 169 194 1,700 -900 Descending Orlando TRACON
12:43AM 28.4833 -81.3000 180° South 127 146 900 -840 Descending Orlando TRACON
12:45AM 28.4294 -81.3090 180° South  Level Estimated
12:52AM 28.4294 -81.3090 24° Northeast  Level Estimated
12:53AM 28.4294 -81.3090 24° Northeast  Level Estimated
12:54AM 28.4294 -81.3090 24° Northeast  Level Estimated
12:55AM 28.4294 -81.3090 24° Northeast  Level Estimated